LFLY/LYN METAR and TAF weather

Enter ICAO airport designator
Station Type Date Time Source
LFLY METAR 2020/08/12 18:30 UTC NOAA

LFLY 121830Z AUTO VRB03KT CAVOK 30/12 Q1012 TEMPO 22015G25KT FEW080CB


Station Type Date Time Source
LFLY Decoded METAR 2020/08/12 18:30 UTC NOAA

Lyon / Bron, France (LFLY) 45-43N 004-57E 201M
Aug 12, 2020 - 02:30 PM EDT / 2020.08.12 1830 UTC
Wind: Variable at 3 MPH (3 KT):0
Visibility: greater than 7 mile(s):0
Weather: Cumulonimbus clouds observed
Temperature: 86 F (30 C)
Dew Point: 53 F (12 C)
Relative Humidity: 33%
Pressure (altimeter): 29.88 in. Hg (1012 hPa)
ob: LFLY 121830Z AUTO VRB03KT CAVOK 30/12 Q1012 TEMPO 22015G25KT FEW080CB
cycle: 18

Station Type Date Time Source
LFLY TAF 2020/08/12 18:21 UTC NOAA

TAF LFLY 121700Z 1218/1318 18008KT CAVOK PROB30
TEMPO 1220/1306 22015G25KT -SHRA FEW080CB PROB40
TEMPO 1312/1318 VRB20G35KT TSRA SCT070CB PROB30
TEMPO 1312/1318 VRB30G45KT 2000 TSGR

Example: see airport list